Time;durP1;ratioP1;P1;durP2;ratioP2;P2;SDS_P1;SDS_P2;PMS_P1;PMS_P2;Temp;Humidity;BMP_temperature;BMP_pressure;BME280_temperature;BME280_humidity;BME280_pressure;Samples;Min_cycle;Max_cycle;Signal;HPM_P1;HPM_P2
2022/03/25 00:01:52;;;;;;;15.95;8.30;;;;;;;8.32;33.37;95128.16;5029668;28;20029;-70
2022/03/25 00:04:18;;;;;;;16.98;8.10;;;;;;;8.31;33.31;95120.50;5013270;28;20095;-70
2022/03/25 00:06:43;;;;;;;11.95;8.07;;;;;;;8.33;33.91;95124.66;5029749;28;20033;-70
2022/03/25 00:09:09;;;;;;;19.25;7.90;;;;;;;8.29;34.20;95125.78;5030850;28;20087;-70
2022/03/25 00:11:35;;;;;;;14.05;8.25;;;;;;;8.26;32.53;95107.88;5031062;28;20052;-71
2022/03/25 00:14:01;;;;;;;14.82;8.20;;;;;;;8.24;31.96;95117.50;5029569;28;20030;-71
2022/03/25 00:16:26;;;;;;;14.88;7.78;;;;;;;8.20;33.47;95118.66;5013009;28;20029;-71
2022/03/25 00:18:52;;;;;;;15.48;8.27;;;;;;;8.21;32.84;95115.94;5013006;28;20438;-70
2022/03/25 00:21:17;;;;;;;14.93;8.20;;;;;;;8.14;34.10;95109.56;5013255;28;20045;-70
2022/03/25 00:23:43;;;;;;;13.70;7.90;;;;;;;8.05;33.66;95113.59;5014798;28;20083;-70
2022/03/25 00:26:08;;;;;;;12.75;7.55;;;;;;;8.12;33.78;95105.41;5049507;28;20036;-70
2022/03/25 00:28:34;;;;;;;14.10;8.15;;;;;;;8.12;32.47;95108.81;5049353;28;20063;-70
2022/03/25 00:30:59;;;;;;;17.70;8.65;;;;;;;8.19;32.22;95098.88;5050307;28;20041;-71
2022/03/25 00:33:25;;;;;;;11.57;7.53;;;;;;;8.20;32.81;95098.78;5050480;28;20033;-71
2022/03/25 00:35:50;;;;;;;13.95;8.30;;;;;;;8.26;31.32;95097.53;5049356;28;20398;-70
2022/03/25 00:38:16;;;;;;;13.98;8.05;;;;;;;8.29;31.78;95092.94;5050398;28;20025;-70
2022/03/25 00:40:44;;;;;;;13.70;7.80;;;;;;;8.22;31.72;95083.16;5050752;28;20338;-70
2022/03/25 00:43:10;;;;;;;14.43;8.27;;;;;;;8.21;32.64;95094.41;5050433;28;20051;-70
2022/03/25 00:45:35;;;;;;;14.52;8.27;;;;;;;8.21;32.32;95089.25;5049094;28;20499;-70
2022/03/25 00:48:00;;;;;;;14.85;8.00;;;;;;;8.26;32.53;95097.53;5050283;28;20418;-70
2022/03/25 00:50:26;;;;;;;15.55;8.05;;;;;;;8.24;33.02;95089.84;5032569;28;20540;-70
2022/03/25 00:52:52;;;;;;;9.90;7.10;;;;;;;8.18;32.88;95086.88;5054175;28;20063;-70
2022/03/25 00:55:19;;;;;;;11.15;7.20;;;;;;;8.12;34.11;95082.94;5054507;28;20402;-70
2022/03/25 00:57:44;;;;;;;12.95;7.43;;;;;;;8.13;30.60;95088.94;5052734;28;20388;-70
2022/03/25 01:00:10;;;;;;;15.77;8.25;;;;;;;8.06;32.99;95070.44;5053984;28;20037;-70
2022/03/25 01:02:35;;;;;;;12.98;7.40;;;;;;;8.00;33.48;95082.03;5019670;28;20028;-70
2022/03/25 01:05:01;;;;;;;13.18;7.65;;;;;;;7.96;34.53;95079.75;5036119;28;20490;-70
2022/03/25 01:07:26;;;;;;;13.98;7.03;;;;;;;7.91;33.61;95082.66;5036104;28;20071;-70
2022/03/25 01:09:52;;;;;;;15.48;7.45;;;;;;;7.83;34.89;95084.94;5053849;28;20036;-70
2022/03/25 01:12:17;;;;;;;12.80;7.57;;;;;;;7.65;36.63;95075.81;5052549;28;20029;-70
2022/03/25 01:14:43;;;;;;;11.50;7.18;;;;;;;7.69;35.22;95082.44;5019480;28;20404;-71
2022/03/25 01:17:08;;;;;;;14.63;7.30;;;;;;;7.64;35.04;95074.19;5051761;28;20036;-70
2022/03/25 01:19:34;;;;;;;13.93;7.70;;;;;;;7.64;36.04;95081.94;5050450;28;20094;-71
2022/03/25 01:22:00;;;;;;;11.32;7.18;;;;;;;7.55;36.05;95076.44;5051878;28;20386;-71
2022/03/25 01:24:27;;;;;;;12.32;7.32;;;;;;;7.62;35.52;95074.28;5042555;28;20028;-71
2022/03/25 01:26:52;;;;;;;10.77;7.40;;;;;;;7.49;36.40;95071.66;5031611;28;20029;-70
2022/03/25 01:29:18;;;;;;;14.25;7.70;;;;;;;7.48;35.59;95070.03;5030539;28;20144;-70
2022/03/25 01:31:43;;;;;;;14.63;7.30;;;;;;;7.48;34.59;95064.03;5030554;28;20041;-70
2022/03/25 01:34:09;;;;;;;13.45;7.40;;;;;;;7.56;34.29;95062.59;5031605;28;20435;-70
2022/03/25 01:36:34;;;;;;;14.13;7.78;;;;;;;7.58;34.21;95073.66;5015544;28;20044;-71
2022/03/25 01:39:01;;;;;;;11.40;7.20;;;;;;;7.64;33.86;95069.84;5032224;28;20034;-70
2022/03/25 01:41:26;;;;;;;12.77;7.75;;;;;;;7.69;32.36;95061.75;5033720;28;20081;-70
2022/03/25 01:43:56;;;;;;;14.27;7.65;;;;;;;7.65;35.17;95070.66;5032185;28;20038;-70
2022/03/25 01:46:22;;;;;;;12.88;7.05;;;;;;;7.65;35.10;95074.06;5032203;28;20399;-71
2022/03/25 01:48:50;;;;;;;10.85;6.97;;;;;;;7.65;34.33;95081.00;5015560;28;20049;-70
2022/03/25 01:51:18;;;;;;;11.48;7.82;;;;;;;7.66;34.11;95082.66;5031776;28;20041;-71
2022/03/25 01:53:44;;;;;;;11.18;7.05;;;;;;;7.59;34.79;95083.06;5033089;28;20422;-70
2022/03/25 01:56:09;;;;;;;12.68;7.18;;;;;;;7.48;34.61;95079.53;5031979;28;20165;-71
2022/03/25 01:58:35;;;;;;;12.35;6.95;;;;;;;7.54;34.00;95087.72;5033074;28;20029;-71
2022/03/25 02:01:02;;;;;;;11.25;7.00;;;;;;;7.52;32.88;95071.50;5033320;28;20087;-70
2022/03/25 02:03:27;;;;;;;11.05;7.35;;;;;;;7.65;32.97;95088.75;5032911;28;20507;-71
2022/03/25 02:05:56;;;;;;;12.90;7.60;;;;;;;7.61;32.42;95081.22;5032855;28;20045;-70
2022/03/25 02:08:21;;;;;;;11.98;7.18;;;;;;;7.58;32.99;95078.84;5015077;28;20206;-71
2022/03/25 02:10:47;;;;;;;13.45;7.47;;;;;;;7.65;32.21;95074.06;5033087;28;20064;-71
2022/03/25 02:13:12;;;;;;;15.23;7.55;;;;;;;7.70;31.95;95068.59;5031525;28;20025;-71
2022/03/25 02:15:41;;;;;;;10.25;7.25;;;;;;;7.79;32.59;95078.31;5031639;28;20040;-71
2022/03/25 02:18:12;;;;;;;11.75;7.35;;;;;;;7.76;32.76;95088.88;5031337;28;20049;-71
2022/03/25 02:20:38;;;;;;;14.98;7.00;;;;;;;7.76;32.60;95084.50;5031577;28;20030;-71
2022/03/25 02:23:04;;;;;;;11.23;7.15;;;;;;;7.80;32.48;95082.53;5031364;28;20067;-71
2022/03/25 02:25:30;;;;;;;13.80;8.10;;;;;;;7.85;32.04;95077.88;5047935;28;20120;-71
2022/03/25 02:27:57;;;;;;;13.07;8.05;;;;;;;7.91;31.93;95077.50;5034431;28;20108;-71
2022/03/25 02:30:23;;;;;;;11.10;7.53;;;;;;;7.71;33.18;95072.81;5051114;28;20060;-70
2022/03/25 02:32:48;;;;;;;13.40;7.30;;;;;;;7.75;33.22;95076.88;5051098;28;20086;-70
2022/03/25 02:35:14;;;;;;;12.80;7.40;;;;;;;7.61;33.32;95070.88;5051117;28;20032;-71
2022/03/25 02:37:39;;;;;;;19.65;7.80;;;;;;;7.60;33.56;95069.22;5050901;28;20021;-70
2022/03/25 02:40:05;;;;;;;11.57;7.07;;;;;;;7.46;33.90;95068.47;5034328;28;20399;-71
2022/03/25 02:42:30;;;;;;;15.90;8.05;;;;;;;7.44;34.12;95073.75;5050768;28;20029;-71
2022/03/25 02:44:56;;;;;;;14.15;7.68;;;;;;;7.46;33.36;95068.47;5050955;28;20036;-70
2022/03/25 02:47:21;;;;;;;14.10;7.13;;;;;;;7.43;35.56;95079.00;5052000;28;20032;-71
2022/03/25 02:49:47;;;;;;;16.23;8.90;;;;;;;7.23;35.51;95075.16;5051935;28;20037;-71
2022/03/25 02:52:12;;;;;;;14.63;8.55;;;;;;;7.21;34.56;95072.66;5051916;28;20033;-70
2022/03/25 02:54:37;;;;;;;12.25;7.72;;;;;;;7.25;34.16;95074.13;5051938;28;20506;-70
2022/03/25 02:57:03;;;;;;;12.60;8.38;;;;;;;7.32;33.82;95070.19;5034016;28;20037;-71
2022/03/25 02:59:29;;;;;;;12.90;7.13;;;;;;;7.20;35.34;95076.19;5029789;28;20052;-70
2022/03/25 03:01:54;;;;;;;11.38;7.60;;;;;;;7.16;33.48;95075.56;5017030;28;20471;-70
2022/03/25 03:04:20;;;;;;;12.10;7.80;;;;;;;7.24;32.78;95067.28;5031841;28;20407;-72
2022/03/25 03:06:45;;;;;;;11.55;7.45;;;;;;;7.24;34.11;95071.63;5033196;28;20029;-70
2022/03/25 03:09:11;;;;;;;12.85;7.57;;;;;;;7.13;33.81;95070.59;5030565;28;20029;-71
2022/03/25 03:11:36;;;;;;;15.65;7.68;;;;;;;7.16;34.95;95083.31;5040878;28;20396;-70
2022/03/25 03:14:03;;;;;;;12.50;7.32;;;;;;;7.10;35.96;95081.13;5049809;28;20412;-72
2022/03/25 03:16:28;;;;;;;12.35;7.22;;;;;;;6.94;36.23;95080.47;5050412;28;20091;-70
2022/03/25 03:18:54;;;;;;;14.30;8.52;;;;;;;6.90;37.98;95089.31;5050232;28;20084;-70
2022/03/25 03:21:23;;;;;;;24.42;12.93;;;;;;;6.65;39.58;95090.88;5050311;28;20518;-70
2022/03/25 03:23:49;;;;;;;20.40;11.70;;;;;;;6.43;40.06;95095.72;5042543;28;20426;-70
2022/03/25 03:26:15;;;;;;;17.25;10.18;;;;;;;6.31;40.95;95094.72;5050167;28;20025;-70
2022/03/25 03:28:40;;;;;;;18.45;9.30;;;;;;;5.87;40.30;95084.50;5033499;28;20047;-70
2022/03/25 03:31:06;;;;;;;16.83;8.73;;;;;;;5.90;41.97;95092.88;5033527;28;20033;-70
2022/03/25 03:33:31;;;;;;;17.73;8.43;;;;;;;5.62;39.19;95091.09;5051215;28;20029;-70
2022/03/25 03:35:56;;;;;;;14.75;8.20;;;;;;;5.60;39.54;95087.81;5049936;28;20203;-70
2022/03/25 03:38:22;;;;;;;16.63;8.18;;;;;;;5.34;42.02;95092.72;5033195;28;20090;-70
2022/03/25 03:40:47;;;;;;;14.55;7.72;;;;;;;5.19;42.50;95090.22;5051430;28;20073;-70
2022/03/25 03:43:13;;;;;;;18.83;8.13;;;;;;;5.19;41.02;95091.03;5049822;28;20033;-70
2022/03/25 03:45:38;;;;;;;12.88;7.75;;;;;;;4.98;41.65;95089.69;5033258;28;20411;-70
2022/03/25 03:48:04;;;;;;;14.23;7.45;;;;;;;4.99;42.06;95083.63;5050973;28;20112;-70
2022/03/25 03:50:30;;;;;;;13.63;8.07;;;;;;;4.93;41.84;95085.63;5034720;28;20049;-70
2022/03/25 03:52:56;;;;;;;13.27;7.68;;;;;;;4.98;43.67;95087.91;5029787;28;20029;-70
2022/03/25 03:55:21;;;;;;;13.40;7.80;;;;;;;4.60;41.04;95093.47;5029824;28;20480;-70
2022/03/25 03:57:47;;;;;;;14.85;7.60;;;;;;;4.44;41.24;95098.63;5030925;28;20032;-70
2022/03/25 04:00:13;;;;;;;12.98;7.75;;;;;;;4.40;42.11;95097.13;5013263;28;20029;-70
2022/03/25 04:02:39;;;;;;;14.15;7.80;;;;;;;4.38;42.27;95096.38;5029603;28;20060;-70
2022/03/25 04:05:05;;;;;;;14.02;7.97;;;;;;;4.30;42.27;95101.09;5013188;28;20507;-70
2022/03/25 04:07:31;;;;;;;17.10;7.78;;;;;;;4.19;43.09;95093.97;5030724;28;20040;-70
2022/03/25 04:09:56;;;;;;;14.90;8.50;;;;;;;4.21;44.72;95101.63;5029487;28;20034;-70
2022/03/25 04:12:22;;;;;;;16.60;8.35;;;;;;;4.08;44.89;95096.28;5029447;28;20076;-70
2022/03/25 04:14:48;;;;;;;15.15;8.30;;;;;;;4.19;44.33;95100.84;5029601;28;20033;-70
2022/03/25 04:17:13;;;;;;;17.30;9.00;;;;;;;4.17;45.19;95094.94;5029377;28;20488;-70
2022/03/25 04:19:39;;;;;;;15.25;8.00;;;;;;;3.84;45.76;95088.09;4996624;28;20419;-70
2022/03/25 04:22:05;;;;;;;24.00;12.40;;;;;;;4.05;44.89;95096.44;5029476;28;20447;-70
2022/03/25 04:24:31;;;;;;;26.30;13.02;;;;;;;4.06;46.41;95102.41;5049168;28;20021;-70
2022/03/25 04:26:56;;;;;;;18.33;10.95;;;;;;;3.93;44.41;95097.09;5052025;28;20037;-70
2022/03/25 04:29:22;;;;;;;21.23;10.30;;;;;;;3.96;46.57;95100.31;5053362;28;20526;-71
2022/03/25 04:31:48;;;;;;;20.67;11.32;;;;;;;3.91;46.13;95106.63;5036813;28;20480;-71
2022/03/25 04:34:13;;;;;;;20.02;11.70;;;;;;;3.90;47.58;95092.09;5054539;28;20025;-71
2022/03/25 04:36:39;;;;;;;17.85;11.00;;;;;;;3.99;47.21;95100.16;5053435;28;20083;-70
2022/03/25 04:39:04;;;;;;;13.00;8.45;;;;;;;4.00;46.07;95093.28;5054535;28;20174;-71
2022/03/25 04:41:30;;;;;;;15.43;9.35;;;;;;;4.09;46.33;95118.50;5054326;28;20182;-70
2022/03/25 04:43:55;;;;;;;30.83;14.23;;;;;;;4.06;45.22;95117.84;5043237;28;20491;-71
2022/03/25 04:46:20;;;;;;;21.13;10.23;;;;;;;3.96;45.97;95102.91;5040810;28;20029;-71
2022/03/25 04:48:46;;;;;;;25.63;13.55;;;;;;;4.09;45.77;95112.53;5034692;28;20029;-71
2022/03/25 04:51:11;;;;;;;32.60;15.30;;;;;;;3.99;47.13;95113.00;5053105;28;20047;-70
2022/03/25 04:53:37;;;;;;;36.42;17.05;;;;;;;4.16;46.58;95108.72;5036373;28;20083;-70
2022/03/25 04:56:03;;;;;;;35.38;15.80;;;;;;;4.07;48.32;95111.78;5036379;28;20044;-71
2022/03/25 04:58:28;;;;;;;30.73;15.13;;;;;;;4.07;48.31;95114.34;5036325;28;20029;-70
2022/03/25 05:00:54;;;;;;;23.67;11.25;;;;;;;4.14;46.66;95113.94;5035695;28;20036;-71
2022/03/25 05:03:19;;;;;;;14.68;8.90;;;;;;;4.08;46.26;95108.31;5033045;28;20112;-71
2022/03/25 05:05:45;;;;;;;14.55;8.88;;;;;;;4.14;45.91;95115.69;5035755;28;20044;-71
2022/03/25 05:08:11;;;;;;;13.20;8.13;;;;;;;4.07;45.41;95120.34;5016302;28;20025;-71
2022/03/25 05:10:38;;;;;;;17.00;9.55;;;;;;;4.07;45.87;95111.78;5016086;28;20064;-71
2022/03/25 05:13:03;;;;;;;15.55;8.52;;;;;;;4.10;45.23;95112.47;5033587;28;20033;-71
2022/03/25 05:15:28;;;;;;;23.27;12.10;;;;;;;4.17;45.45;95125.81;5039357;28;20025;-71
2022/03/25 05:17:54;;;;;;;20.35;12.10;;;;;;;4.19;47.34;95114.53;5035507;28;20040;-72
2022/03/25 05:20:21;;;;;;;46.65;18.52;;;;;;;3.94;44.75;95120.13;5018456;28;20295;-71
2022/03/25 05:22:46;;;;;;;36.05;16.52;;;;;;;4.14;45.13;95115.69;4998641;28;20612;-71
2022/03/25 05:25:12;;;;;;;34.03;15.80;;;;;;;4.34;45.57;95125.75;5036442;28;20030;-71
2022/03/25 05:27:44;;;;;;;55.28;22.23;;;;;;;4.30;45.49;95126.00;5022545;28;20037;-71
2022/03/25 05:30:11;;;;;;;45.53;19.00;;;;;;;4.46;45.97;95125.09;5041580;28;20029;-71
2022/03/25 05:32:38;;;;;;;33.72;16.73;;;;;;;4.68;46.92;95118.75;5023562;28;20132;-71
2022/03/25 05:35:06;;;;;;;22.25;10.77;;;;;;;5.16;46.70;95116.97;5044803;28;20044;-71
2022/03/25 05:37:31;;;;;;;25.00;13.05;;;;;;;5.56;43.51;95124.97;5045898;28;20055;-71
2022/03/25 05:39:57;;;;;;;19.23;11.18;;;;;;;5.85;41.12;95112.97;5045742;28;20032;-71
2022/03/25 05:42:22;;;;;;;23.60;12.15;;;;;;;5.88;44.17;95119.66;5037005;28;20411;-70
2022/03/25 05:44:47;;;;;;;31.15;15.93;;;;;;;5.92;43.68;95118.59;5049091;28;20461;-71
2022/03/25 05:47:13;;;;;;;32.80;16.05;;;;;;;6.05;43.05;95122.13;5047672;28;20059;-71
2022/03/25 05:49:39;;;;;;;36.65;14.68;;;;;;;6.03;43.76;95101.56;5037655;28;20028;-71
2022/03/25 05:52:05;;;;;;;33.25;13.93;;;;;;;6.28;43.20;95118.16;5035428;28;20032;-71
2022/03/25 05:54:31;;;;;;;29.33;15.07;;;;;;;6.39;42.06;95104.59;5028952;28;20044;-70
2022/03/25 05:56:56;;;;;;;35.80;19.10;;;;;;;6.66;42.87;95117.53;5049187;28;20033;-71
2022/03/25 05:59:21;;;;;;;40.83;20.95;;;;;;;6.96;41.18;95122.50;5045848;28;20021;-69
2022/03/25 06:01:47;;;;;;;40.80;17.55;;;;;;;7.39;41.27;95115.41;5046392;28;20045;-69
2022/03/25 06:04:12;;;;;;;42.55;19.60;;;;;;;7.75;40.10;95113.91;5049986;28;20483;-69
2022/03/25 06:06:38;;;;;;;52.55;23.70;;;;;;;7.78;39.63;95118.03;5047581;28;20032;-69
2022/03/25 06:09:03;;;;;;;36.10;16.77;;;;;;;8.12;36.27;95111.41;5044110;28;20033;-69
2022/03/25 06:11:29;;;;;;;43.95;21.13;;;;;;;8.55;37.59;95112.81;5043808;28;20041;-69
2022/03/25 06:13:55;;;;;;;35.33;19.42;;;;;;;8.94;35.56;95117.78;5015886;28;20113;-69
2022/03/25 06:16:20;;;;;;;39.60;18.92;;;;;;;9.19;32.83;95100.44;5046810;28;20524;-69
2022/03/25 06:18:47;;;;;;;26.33;14.40;;;;;;;9.61;34.94;95121.56;4953733;28;2758427;-69
2022/03/25 06:21:13;;;;;;;21.27;11.00;;;;;;;9.97;30.05;95114.56;5041815;28;20107;-69
2022/03/25 06:23:38;;;;;;;18.70;10.55;;;;;;;10.20;28.88;95111.06;5046313;28;20041;-70
2022/03/25 06:26:05;;;;;;;20.92;12.00;;;;;;;10.61;29.45;95117.44;5017955;28;20033;-69
2022/03/25 06:28:31;;;;;;;20.63;11.35;;;;;;;10.79;28.70;95111.78;5042078;28;20607;-70
2022/03/25 06:30:56;;;;;;;21.80;12.05;;;;;;;11.06;27.84;95121.72;5013019;28;20033;-70
2022/03/25 06:33:22;;;;;;;21.98;12.77;;;;;;;11.29;27.81;95120.72;5048048;28;20140;-70
2022/03/25 06:35:47;;;;;;;22.42;12.48;;;;;;;11.62;26.98;95121.53;5031877;28;20035;-70
2022/03/25 06:38:13;;;;;;;24.88;12.30;;;;;;;11.87;26.93;95120.38;5048797;28;20487;-69
2022/03/25 06:40:38;;;;;;;26.63;12.98;;;;;;;11.85;26.12;95127.44;5013358;28;20071;-69
2022/03/25 06:43:05;;;;;;;22.77;12.98;;;;;;;12.10;26.14;95128.84;5047539;28;20036;-69
2022/03/25 06:45:31;;;;;;;23.98;13.30;;;;;;;12.39;27.12;95123.78;5027906;28;20545;-70
2022/03/25 06:47:57;;;;;;;28.27;13.50;;;;;;;12.64;26.05;95130.31;5030986;28;20112;-69
2022/03/25 06:50:24;;;;;;;25.75;14.65;;;;;;;12.89;25.94;95109.97;5025358;28;20045;-71
2022/03/25 06:52:49;;;;;;;27.58;15.68;;;;;;;13.08;25.79;95127.44;5034376;28;20036;-70
2022/03/25 06:55:15;;;;;;;17.33;12.48;;;;;;;13.32;24.47;95119.28;5020795;28;20108;-70
2022/03/25 06:57:41;;;;;;;22.13;14.27;;;;;;;13.56;25.04;95127.50;5038663;28;20033;-70
2022/03/25 07:00:12;;;;;;;19.85;12.15;;;;;;;13.82;22.95;95122.56;5039272;28;20104;-69
2022/03/25 07:02:41;;;;;;;20.35;12.70;;;;;;;14.03;23.05;95124.97;5035851;28;20116;-72
2022/03/25 07:05:07;;;;;;;148.60;83.57;;;;;;;14.17;22.70;95125.50;5031299;28;20025;-72
2022/03/25 07:07:34;;;;;;;24.60;14.45;;;;;;;14.38;22.22;95118.31;5037057;28;20503;-71
2022/03/25 07:09:59;;;;;;;23.58;13.23;;;;;;;14.61;22.10;95129.25;5015858;28;20033;-72
2022/03/25 07:12:25;;;;;;;24.48;12.93;;;;;;;14.74;21.82;95127.13;5042673;28;20033;-71
2022/03/25 07:14:50;;;;;;;20.58;13.27;;;;;;;14.80;21.75;95117.06;5045501;28;20410;-72
2022/03/25 07:17:16;;;;;;;25.58;13.90;;;;;;;14.79;21.69;95107.56;5030466;28;20040;-73
2022/03/25 07:19:41;;;;;;;27.38;13.35;;;;;;;14.96;21.69;95122.47;5028493;28;20056;-71
2022/03/25 07:22:07;;;;;;;25.38;13.82;;;;;;;15.05;21.18;95124.22;5043302;28;20033;-71
2022/03/25 07:24:33;;;;;;;26.80;14.43;;;;;;;15.19;21.48;95126.31;5036201;28;20454;-71
2022/03/25 07:26:58;;;;;;;22.58;13.95;;;;;;;15.25;21.31;95126.72;5040352;28;20033;-72
2022/03/25 07:29:24;;;;;;;22.73;14.35;;;;;;;15.25;21.58;95131.94;5021538;28;20041;-78
2022/03/25 07:31:49;;;;;;;22.75;14.13;;;;;;;15.37;21.46;95133.38;5014846;28;20037;-73
2022/03/25 07:34:15;;;;;;;23.45;13.52;;;;;;;15.36;21.02;95139.59;5038803;28;20027;-71
2022/03/25 07:36:40;;;;;;;20.67;14.60;;;;;;;15.37;21.42;95138.59;5035520;28;20064;-70
2022/03/25 07:39:05;;;;;;;25.95;14.65;;;;;;;15.36;21.07;95129.94;5034506;28;20041;-71
2022/03/25 07:41:31;;;;;;;25.45;15.00;;;;;;;15.37;21.35;95142.03;5037615;28;20038;-70
2022/03/25 07:43:56;;;;;;;21.83;13.95;;;;;;;15.38;21.35;95145.50;5036530;28;20029;-70
2022/03/25 07:46:23;;;;;;;23.85;14.02;;;;;;;15.39;21.76;95134.88;5037193;28;20033;-71
2022/03/25 07:48:49;;;;;;;21.08;13.52;;;;;;;15.35;21.08;95146.63;5037093;28;20045;-71
2022/03/25 07:51:15;;;;;;;27.00;14.02;;;;;;;15.13;21.45;95134.78;5033999;28;20463;-71
2022/03/25 07:53:40;;;;;;;24.52;14.43;;;;;;;15.11;21.36;95143.72;5031808;28;20036;-70
2022/03/25 07:56:05;;;;;;;22.67;14.10;;;;;;;15.10;21.59;95135.06;5047509;28;20036;-70
2022/03/25 07:58:31;;;;;;;20.60;13.15;;;;;;;15.31;21.36;95141.81;5047518;28;20048;-70
2022/03/25 08:00:57;;;;;;;23.17;14.13;;;;;;;15.25;21.20;95147.66;5030918;28;20495;-71
2022/03/25 08:03:22;;;;;;;22.65;13.27;;;;;;;15.24;21.13;95140.75;5048880;28;20033;-70
2022/03/25 08:05:50;;;;;;;24.95;13.75;;;;;;;15.37;21.53;95138.59;5047510;28;20040;-70
2022/03/25 08:08:17;;;;;;;28.48;13.68;;;;;;;15.45;21.67;95149.16;5048735;28;20103;-71
2022/03/25 08:10:43;;;;;;;22.67;13.60;;;;;;;15.51;21.37;95132.84;5032899;28;20033;-71
2022/03/25 08:13:09;;;;;;;19.95;13.52;;;;;;;15.56;21.66;95130.59;5032848;28;20055;-70
2022/03/25 08:15:34;;;;;;;22.27;13.07;;;;;;;15.73;21.53;95139.44;5049552;28;20036;-70
2022/03/25 08:18:00;;;;;;;24.90;14.48;;;;;;;15.69;20.95;95145.16;5032597;28;20029;-70
2022/03/25 08:20:45;;;;;;;19.63;13.30;;;;;;;15.74;20.87;95124.56;5049427;28;20121;-70
2022/03/25 08:27:48;;;;;;;25.15;12.63;;;;;;;15.67;21.21;95136.59;5033720;28;20580;-70
2022/03/25 08:28:45;;;;;;;24.98;13.20;;;;;;;15.76;21.06;95148.81;5049542;28;20040;-70
2022/03/25 08:31:10;;;;;;;23.45;13.30;;;;;;;15.60;21.21;95137.19;5049293;28;20033;-70
2022/03/25 08:33:36;;;;;;;22.30;12.70;;;;;;;15.67;21.55;95157.53;5049642;28;20107;-70
2022/03/25 08:36:02;;;;;;;22.17;13.07;;;;;;;15.73;21.05;95156.97;5049426;28;20560;-70
2022/03/25 08:38:27;;;;;;;24.15;12.77;;;;;;;15.78;20.47;95141.63;5049138;28;20079;-70
2022/03/25 08:40:53;;;;;;;32.50;13.65;;;;;;;15.85;21.51;95153.13;5049360;28;20037;-70
2022/03/25 08:43:18;;;;;;;23.42;13.50;;;;;;;15.80;20.82;95151.00;5049205;28;20021;-70
2022/03/25 08:45:44;;;;;;;20.50;12.85;;;;;;;15.74;21.08;95145.50;5050643;28;20044;-70
2022/03/25 08:48:10;;;;;;;29.80;12.45;;;;;;;15.56;20.98;95150.72;5032436;28;20041;-70
2022/03/25 08:50:36;;;;;;;24.83;12.50;;;;;;;15.42;21.12;95165.16;5049167;28;20028;-70
2022/03/25 08:53:01;;;;;;;29.55;13.00;;;;;;;15.41;21.06;95143.41;5049139;28;20052;-70
2022/03/25 08:55:27;;;;;;;24.20;13.02;;;;;;;15.47;21.38;95154.25;5049148;28;20041;-70
2022/03/25 08:57:52;;;;;;;23.45;12.75;;;;;;;15.41;21.19;95147.81;5049048;28;20392;-70
2022/03/25 09:00:18;;;;;;;25.35;12.32;;;;;;;15.44;21.28;95152.75;5032597;28;20406;-70
2022/03/25 09:02:44;;;;;;;17.88;12.48;;;;;;;15.51;21.06;95138.06;5049243;28;20052;-70
2022/03/25 09:05:11;;;;;;;20.33;11.70;;;;;;;15.49;21.20;95133.97;5032427;28;20475;-70
2022/03/25 09:07:37;;;;;;;24.25;12.63;;;;;;;15.61;21.38;95128.38;5015989;28;20515;-70
2022/03/25 09:10:14;;;;;;;24.60;12.07;;;;;;;15.73;21.04;95138.63;5015969;28;20108;-70
2022/03/25 09:12:40;;;;;;;19.50;12.50;;;;;;;15.76;20.59;95126.06;5034693;28;20033;-71
2022/03/25 09:15:06;;;;;;;25.67;12.23;;;;;;;15.83;21.17;95134.16;5052593;28;20108;-70
2022/03/25 09:17:32;;;;;;;19.88;12.25;;;;;;;15.89;20.51;95128.28;5052764;28;20124;-70
2022/03/25 09:19:57;;;;;;;24.17;12.27;;;;;;;15.85;20.61;95119.09;5036161;28;20226;-71
2022/03/25 09:22:23;;;;;;;24.65;13.30;;;;;;;15.99;21.31;95136.91;5052344;28;20045;-71
2022/03/25 09:24:48;;;;;;;18.35;12.02;;;;;;;16.08;20.25;95130.75;5052451;28;20024;-71
2022/03/25 09:27:14;;;;;;;19.85;11.63;;;;;;;16.05;20.15;95128.44;5052362;28;20029;-70
2022/03/25 09:29:39;;;;;;;28.17;12.40;;;;;;;16.17;20.70;95129.00;5035683;28;20095;-70
2022/03/25 09:32:05;;;;;;;19.85;11.70;;;;;;;16.17;19.84;95117.69;5053405;28;20491;-70
2022/03/25 09:37:14;;;;;;;24.40;12.00;;;;;;;16.27;20.70;95110.56;5053406;28;20047;-70
2022/03/25 09:39:40;;;;;;;19.10;11.32;;;;;;;16.20;20.47;95126.06;5052137;28;20025;-70
2022/03/25 09:42:06;;;;;;;18.20;12.10;;;;;;;16.20;19.79;95127.88;5035496;28;20392;-70
2022/03/25 09:44:32;;;;;;;18.88;10.70;;;;;;;16.21;19.53;95130.31;5035440;28;20036;-70
2022/03/25 09:46:57;;;;;;;25.17;10.30;;;;;;;16.04;19.91;95124.13;5035359;28;20037;-70
2022/03/25 09:49:23;;;;;;;22.23;10.30;;;;;;;16.16;19.85;95110.78;5035554;28;20067;-71
2022/03/25 09:51:48;;;;;;;17.75;10.82;;;;;;;16.20;19.91;95117.38;5051830;28;20102;-70
2022/03/25 09:54:14;;;;;;;18.73;10.23;;;;;;;16.14;19.62;95097.03;5053141;28;20075;-70
2022/03/25 09:56:40;;;;;;;18.50;10.38;;;;;;;16.29;19.13;95124.31;5018910;28;20498;-70
2022/03/25 09:59:06;;;;;;;18.23;9.98;;;;;;;16.30;19.25;95118.09;5035134;28;20025;-70
2022/03/25 10:01:32;;;;;;;23.15;10.80;;;;;;;16.31;19.11;95104.00;5035361;28;20419;-70
2022/03/25 10:03:58;;;;;;;16.60;10.23;;;;;;;16.36;19.02;95093.88;5018677;28;20033;-70
2022/03/25 10:06:24;;;;;;;16.88;9.93;;;;;;;16.43;19.11;95117.69;5051539;28;20032;-70
2022/03/25 10:08:59;;;;;;;19.67;10.32;;;;;;;16.42;18.84;95121.28;5018712;28;20064;-71
2022/03/25 10:11:31;;;;;;;15.00;9.60;;;;;;;16.42;18.71;95095.06;5035153;28;20029;-70
2022/03/25 10:14:19;;;;;;;20.27;9.68;;;;;;;16.47;18.79;95104.09;5034962;28;20037;-70
2022/03/25 10:16:46;;;;;;;14.10;8.98;;;;;;;16.52;18.52;95103.66;5035602;28;20074;-70
2022/03/25 10:19:21;;;;;;;17.25;9.82;;;;;;;16.52;18.36;95093.97;5034882;28;20110;-70
2022/03/25 10:22:00;;;;;;;15.50;8.77;;;;;;;16.56;18.98;95106.78;5036374;28;20542;-70
2022/03/25 10:24:47;;;;;;;14.32;8.82;;;;;;;16.54;18.80;95093.81;5017057;28;20116;-70
2022/03/25 10:27:15;;;;;;;18.10;8.80;;;;;;;16.63;18.35;95084.16;5035048;28;20033;-70
2022/03/25 10:29:43;;;;;;;14.77;8.50;;;;;;;16.71;18.62;95079.78;5051245;28;20124;-70
2022/03/25 10:32:13;;;;;;;12.80;8.82;;;;;;;16.83;18.25;95074.31;5034788;28;20053;-71
2022/03/25 10:34:40;;;;;;;12.75;8.48;;;;;;;16.84;17.58;95079.38;5034707;28;20411;-71
2022/03/25 10:37:11;;;;;;;16.35;8.60;;;;;;;16.79;18.00;95076.41;5034558;28;20060;-71
2022/03/25 10:39:36;;;;;;;13.32;8.30;;;;;;;16.71;17.80;95076.34;5051073;28;20436;-71
2022/03/25 10:42:06;;;;;;;14.13;8.52;;;;;;;16.72;17.60;95083.25;5034346;28;20099;-70
2022/03/25 10:44:40;;;;;;;18.63;10.00;;;;;;;16.77;17.57;95067.88;5034450;28;20469;-71
2022/03/25 10:47:14;;;;;;;21.60;13.10;;;;;;;16.86;17.82;95087.09;5034408;28;20041;-70
2022/03/25 10:49:43;;;;;;;14.35;8.95;;;;;;;16.82;17.64;95073.44;5052055;28;20029;-70
2022/03/25 10:52:22;;;;;;;19.30;8.98;;;;;;;16.94;18.00;95072.19;5034440;28;20037;-71
2022/03/25 10:54:47;;;;;;;15.85;10.02;;;;;;;17.00;17.53;95091.72;5050881;28;20471;-70
2022/03/25 10:57:13;;;;;;;16.77;11.27;;;;;;;16.88;17.25;95088.59;5034062;28;20029;-70
2022/03/25 10:59:38;;;;;;;26.63;17.48;;;;;;;16.89;17.46;95082.34;5034090;28;20083;-70
2022/03/25 11:02:05;;;;;;;33.22;16.92;;;;;;;16.95;17.74;95070.38;5051780;28;20029;-70
2022/03/25 11:04:31;;;;;;;70.18;30.20;;;;;;;17.04;17.78;95076.47;5017542;28;20380;-70
2022/03/25 11:07:01;;;;;;;19.30;10.23;;;;;;;17.04;17.29;95068.59;5033963;28;20036;-70
2022/03/25 11:09:27;;;;;;;15.40;9.17;;;;;;;17.04;17.48;95053.69;5034904;28;20028;-70
2022/03/25 11:11:52;;;;;;;13.38;7.88;;;;;;;17.12;17.89;95077.31;5033845;28;20075;-70
2022/03/25 11:14:19;;;;;;;13.10;7.95;;;;;;;17.12;16.97;95063.38;5050428;28;20021;-71
2022/03/25 11:16:49;;;;;;;15.38;7.80;;;;;;;17.07;17.38;95047.28;5051378;28;20110;-70
2022/03/25 11:19:14;;;;;;;16.95;7.93;;;;;;;17.05;17.54;95044.84;5051466;28;20059;-70
2022/03/25 11:21:45;;;;;;;20.58;8.30;;;;;;;16.97;17.05;95047.44;5033818;28;20033;-70
2022/03/25 11:24:36;;;;;;;16.25;8.02;;;;;;;17.05;17.23;95060.59;5050277;28;20025;-69
2022/03/25 11:27:13;;;;;;;13.57;7.70;;;;;;;16.93;17.12;95039.06;5051360;28;20025;-70
2022/03/25 11:29:43;;;;;;;11.07;7.88;;;;;;;17.02;16.97;95028.56;5050264;28;20213;-69